sensor_id;sensor_type;location;lat;lon;timestamp;temperature;humidity
19232;DHT22;9750;48.730;10.294;2023-05-14T00:01:10;12.30;99.90
19232;DHT22;9750;48.730;10.294;2023-05-14T00:03:37;12.30;99.90
19232;DHT22;9750;48.730;10.294;2023-05-14T00:06:07;12.20;99.90
19232;DHT22;9750;48.730;10.294;2023-05-14T00:08:35;12.20;99.90
19232;DHT22;9750;48.730;10.294;2023-05-14T00:11:02;12.20;99.90
19232;DHT22;9750;48.730;10.294;2023-05-14T00:13:30;12.10;99.90
19232;DHT22;9750;48.730;10.294;2023-05-14T00:15:59;12.20;99.90
19232;DHT22;9750;48.730;10.294;2023-05-14T00:18:26;12.20;99.90
19232;DHT22;9750;48.730;10.294;2023-05-14T00:20:54;12.10;99.90
19232;DHT22;9750;48.730;10.294;2023-05-14T00:23:23;12.10;99.90
19232;DHT22;9750;48.730;10.294;2023-05-14T00:25:50;12.10;99.90
19232;DHT22;9750;48.730;10.294;2023-05-14T00:28:51;12.00;99.90
19232;DHT22;9750;48.730;10.294;2023-05-14T00:31:19;12.00;99.90
19232;DHT22;9750;48.730;10.294;2023-05-14T00:33:46;12.00;99.90
19232;DHT22;9750;48.730;10.294;2023-05-14T00:36:13;12.00;99.90
19232;DHT22;9750;48.730;10.294;2023-05-14T00:38:42;12.00;99.90
19232;DHT22;9750;48.730;10.294;2023-05-14T00:41:10;12.00;99.90
19232;DHT22;9750;48.730;10.294;2023-05-14T00:43:37;11.90;99.90
19232;DHT22;9750;48.730;10.294;2023-05-14T00:46:04;11.90;99.90
19232;DHT22;9750;48.730;10.294;2023-05-14T00:48:32;11.90;99.90
19232;DHT22;9750;48.730;10.294;2023-05-14T00:51:05;11.90;99.90
19232;DHT22;9750;48.730;10.294;2023-05-14T00:53:34;11.90;99.90
19232;DHT22;9750;48.730;10.294;2023-05-14T00:56:04;11.80;99.90
19232;DHT22;9750;48.730;10.294;2023-05-14T00:58:31;11.80;99.90
19232;DHT22;9750;48.730;10.294;2023-05-14T01:00:59;11.80;99.90
19232;DHT22;9750;48.730;10.294;2023-05-14T01:03:26;11.80;99.90
19232;DHT22;9750;48.730;10.294;2023-05-14T01:06:00;11.80;99.90
19232;DHT22;9750;48.730;10.294;2023-05-14T01:08:34;11.70;99.90
19232;DHT22;9750;48.730;10.294;2023-05-14T01:11:08;11.70;99.90
19232;DHT22;9750;48.730;10.294;2023-05-14T01:13:45;11.70;99.90
19232;DHT22;9750;48.730;10.294;2023-05-14T01:16:18;11.70;99.90
19232;DHT22;9750;48.730;10.294;2023-05-14T01:18:48;11.70;99.90
19232;DHT22;9750;48.730;10.294;2023-05-14T01:21:33;11.70;99.90
19232;DHT22;9750;48.730;10.294;2023-05-14T01:24:02;11.70;99.90
19232;DHT22;9750;48.730;10.294;2023-05-14T01:26:30;11.70;99.90
19232;DHT22;9750;48.730;10.294;2023-05-14T01:29:01;11.70;99.90
19232;DHT22;9750;48.730;10.294;2023-05-14T01:31:31;11.70;99.90
19232;DHT22;9750;48.730;10.294;2023-05-14T01:34:01;11.70;99.90
19232;DHT22;9750;48.730;10.294;2023-05-14T01:36:31;11.70;99.90
19232;DHT22;9750;48.730;10.294;2023-05-14T01:39:00;11.70;99.90
19232;DHT22;9750;48.730;10.294;2023-05-14T01:41:29;11.70;99.90
19232;DHT22;9750;48.730;10.294;2023-05-14T01:43:57;11.70;99.90
19232;DHT22;9750;48.730;10.294;2023-05-14T01:46:24;11.70;99.90
19232;DHT22;9750;48.730;10.294;2023-05-14T01:48:52;11.70;99.90
19232;DHT22;9750;48.730;10.294;2023-05-14T01:51:19;11.70;99.90
19232;DHT22;9750;48.730;10.294;2023-05-14T01:53:48;11.70;99.90
19232;DHT22;9750;48.730;10.294;2023-05-14T01:56:17;11.70;99.90
19232;DHT22;9750;48.730;10.294;2023-05-14T01:58:44;11.70;99.90
19232;DHT22;9750;48.730;10.294;2023-05-14T02:01:11;11.70;99.90
19232;DHT22;9750;48.730;10.294;2023-05-14T02:03:39;11.80;99.90
19232;DHT22;9750;48.730;10.294;2023-05-14T02:06:06;11.80;99.90
19232;DHT22;9750;48.730;10.294;2023-05-14T02:08:34;11.80;99.90
19232;DHT22;9750;48.730;10.294;2023-05-14T02:11:02;11.80;99.90
19232;DHT22;9750;48.730;10.294;2023-05-14T02:13:30;11.80;99.90
19232;DHT22;9750;48.730;10.294;2023-05-14T02:15:57;11.80;99.90
19232;DHT22;9750;48.730;10.294;2023-05-14T02:18:37;11.80;99.90
19232;DHT22;9750;48.730;10.294;2023-05-14T02:21:04;11.80;99.90
19232;DHT22;9750;48.730;10.294;2023-05-14T02:23:31;11.80;99.90
19232;DHT22;9750;48.730;10.294;2023-05-14T02:25:59;11.80;99.90
19232;DHT22;9750;48.730;10.294;2023-05-14T02:28:28;11.90;99.90
19232;DHT22;9750;48.730;10.294;2023-05-14T02:30:57;11.90;99.90
19232;DHT22;9750;48.730;10.294;2023-05-14T02:33:25;11.80;99.90
19232;DHT22;9750;48.730;10.294;2023-05-14T02:35:53;11.80;99.90
19232;DHT22;9750;48.730;10.294;2023-05-14T02:38:21;11.80;99.90
19232;DHT22;9750;48.730;10.294;2023-05-14T02:40:48;11.80;99.90
19232;DHT22;9750;48.730;10.294;2023-05-14T02:43:16;11.90;99.90
19232;DHT22;9750;48.730;10.294;2023-05-14T02:45:45;11.90;99.90
19232;DHT22;9750;48.730;10.294;2023-05-14T02:48:46;11.90;99.90
19232;DHT22;9750;48.730;10.294;2023-05-14T02:51:13;11.90;99.90
19232;DHT22;9750;48.730;10.294;2023-05-14T02:53:41;11.90;99.90
19232;DHT22;9750;48.730;10.294;2023-05-14T02:56:08;11.80;99.90
19232;DHT22;9750;48.730;10.294;2023-05-14T02:58:35;11.80;99.90
19232;DHT22;9750;48.730;10.294;2023-05-14T03:01:04;11.80;99.90
19232;DHT22;9750;48.730;10.294;2023-05-14T03:03:32;11.80;99.90
19232;DHT22;9750;48.730;10.294;2023-05-14T03:05:59;11.80;99.90
19232;DHT22;9750;48.730;10.294;2023-05-14T03:08:27;11.80;99.90
19232;DHT22;9750;48.730;10.294;2023-05-14T03:11:03;11.80;99.90
19232;DHT22;9750;48.730;10.294;2023-05-14T03:13:31;11.80;99.90
19232;DHT22;9750;48.730;10.294;2023-05-14T03:15:59;11.80;99.90
19232;DHT22;9750;48.730;10.294;2023-05-14T03:18:27;11.80;99.90
19232;DHT22;9750;48.730;10.294;2023-05-14T03:20:55;11.80;99.90
19232;DHT22;9750;48.730;10.294;2023-05-14T03:23:23;11.80;99.90
19232;DHT22;9750;48.730;10.294;2023-05-14T03:25:50;11.80;99.90
19232;DHT22;9750;48.730;10.294;2023-05-14T03:28:17;11.80;99.90
19232;DHT22;9750;48.730;10.294;2023-05-14T03:30:45;11.80;99.90
19232;DHT22;9750;48.730;10.294;2023-05-14T03:33:12;11.80;99.90
19232;DHT22;9750;48.730;10.294;2023-05-14T03:35:43;11.80;99.90
19232;DHT22;9750;48.730;10.294;2023-05-14T03:38:10;11.80;99.90
19232;DHT22;9750;48.730;10.294;2023-05-14T03:40:38;11.80;99.90
19232;DHT22;9750;48.730;10.294;2023-05-14T03:43:06;11.80;99.90
19232;DHT22;9750;48.730;10.294;2023-05-14T03:45:36;11.80;99.90
19232;DHT22;9750;48.730;10.294;2023-05-14T03:48:04;11.80;99.90
19232;DHT22;9750;48.730;10.294;2023-05-14T03:50:37;11.80;99.90
19232;DHT22;9750;48.730;10.294;2023-05-14T03:53:08;11.80;99.90
19232;DHT22;9750;48.730;10.294;2023-05-14T03:55:36;11.80;99.90
19232;DHT22;9750;48.730;10.294;2023-05-14T03:58:38;11.80;99.90
19232;DHT22;9750;48.730;10.294;2023-05-14T04:01:15;11.80;99.90
19232;DHT22;9750;48.730;10.294;2023-05-14T04:03:53;11.80;99.90
19232;DHT22;9750;48.730;10.294;2023-05-14T04:06:22;11.80;99.90
19232;DHT22;9750;48.730;10.294;2023-05-14T04:08:51;11.80;99.90
19232;DHT22;9750;48.730;10.294;2023-05-14T04:11:18;11.80;99.90
19232;DHT22;9750;48.730;10.294;2023-05-14T04:13:46;11.80;99.90
19232;DHT22;9750;48.730;10.294;2023-05-14T04:16:19;11.80;99.90
19232;DHT22;9750;48.730;10.294;2023-05-14T04:18:47;11.90;99.90
19232;DHT22;9750;48.730;10.294;2023-05-14T04:24:54;11.90;99.90
19232;DHT22;9750;48.730;10.294;2023-05-14T04:28:13;11.90;99.90
19232;DHT22;9750;48.730;10.294;2023-05-14T04:31:30;11.90;99.90
19232;DHT22;9750;48.730;10.294;2023-05-14T04:34:19;11.90;99.90
19232;DHT22;9750;48.730;10.294;2023-05-14T04:37:12;11.90;99.90
19232;DHT22;9750;48.730;10.294;2023-05-14T04:39:43;11.90;99.90
19232;DHT22;9750;48.730;10.294;2023-05-14T04:42:18;11.90;99.90
19232;DHT22;9750;48.730;10.294;2023-05-14T04:45:04;11.90;99.90
19232;DHT22;9750;48.730;10.294;2023-05-14T04:50:51;11.90;99.90
19232;DHT22;9750;48.730;10.294;2023-05-14T04:53:19;11.90;99.90
19232;DHT22;9750;48.730;10.294;2023-05-14T04:55:53;11.90;99.90
19232;DHT22;9750;48.730;10.294;2023-05-14T04:58:59;11.90;99.90
19232;DHT22;9750;48.730;10.294;2023-05-14T05:01:35;12.00;99.90
19232;DHT22;9750;48.730;10.294;2023-05-14T05:04:07;11.90;99.90
19232;DHT22;9750;48.730;10.294;2023-05-14T05:06:37;11.90;99.90
19232;DHT22;9750;48.730;10.294;2023-05-14T05:09:06;11.90;99.90
19232;DHT22;9750;48.730;10.294;2023-05-14T05:11:39;11.90;99.90
19232;DHT22;9750;48.730;10.294;2023-05-14T05:14:06;11.90;99.90
19232;DHT22;9750;48.730;10.294;2023-05-14T05:16:33;11.90;99.90
19232;DHT22;9750;48.730;10.294;2023-05-14T05:19:03;11.90;99.90
19232;DHT22;9750;48.730;10.294;2023-05-14T05:21:30;11.90;99.90
19232;DHT22;9750;48.730;10.294;2023-05-14T05:24:19;11.90;99.90
19232;DHT22;9750;48.730;10.294;2023-05-14T05:26:55;11.90;99.90
19232;DHT22;9750;48.730;10.294;2023-05-14T05:29:33;11.90;99.90
19232;DHT22;9750;48.730;10.294;2023-05-14T05:32:25;11.90;99.90
19232;DHT22;9750;48.730;10.294;2023-05-14T05:34:52;11.90;99.90
19232;DHT22;9750;48.730;10.294;2023-05-14T05:37:23;11.90;99.90
19232;DHT22;9750;48.730;10.294;2023-05-14T05:39:57;12.00;99.90
19232;DHT22;9750;48.730;10.294;2023-05-14T05:42:32;12.00;99.90
19232;DHT22;9750;48.730;10.294;2023-05-14T05:44:59;12.10;99.90
19232;DHT22;9750;48.730;10.294;2023-05-14T05:47:26;12.10;99.90
19232;DHT22;9750;48.730;10.294;2023-05-14T05:49:54;12.20;99.90
19232;DHT22;9750;48.730;10.294;2023-05-14T05:52:25;12.30;99.90
19232;DHT22;9750;48.730;10.294;2023-05-14T06:41:26;13.10;99.90
19232;DHT22;9750;48.730;10.294;2023-05-14T06:43:57;13.20;99.90
19232;DHT22;9750;48.730;10.294;2023-05-14T06:46:24;13.20;99.90
19232;DHT22;9750;48.730;10.294;2023-05-14T06:48:51;13.30;99.90
19232;DHT22;9750;48.730;10.294;2023-05-14T06:51:19;13.40;99.90
19232;DHT22;9750;48.730;10.294;2023-05-14T06:53:46;13.40;99.90
19232;DHT22;9750;48.730;10.294;2023-05-14T06:56:13;13.50;99.50
19232;DHT22;9750;48.730;10.294;2023-05-14T06:58:42;13.50;99.60
19232;DHT22;9750;48.730;10.294;2023-05-14T07:01:09;13.50;99.50
19232;DHT22;9750;48.730;10.294;2023-05-14T07:03:36;13.50;98.70
19232;DHT22;9750;48.730;10.294;2023-05-14T07:06:04;13.50;99.00
19232;DHT22;9750;48.730;10.294;2023-05-14T07:08:32;13.50;99.40
19232;DHT22;9750;48.730;10.294;2023-05-14T07:10:59;13.50;99.50
19232;DHT22;9750;48.730;10.294;2023-05-14T07:13:27;13.50;98.50
19232;DHT22;9750;48.730;10.294;2023-05-14T07:15:55;13.50;98.80
19232;DHT22;9750;48.730;10.294;2023-05-14T07:18:23;13.50;98.60
19232;DHT22;9750;48.730;10.294;2023-05-14T07:20:50;13.50;98.90
19232;DHT22;9750;48.730;10.294;2023-05-14T07:23:17;13.60;99.80
19232;DHT22;9750;48.730;10.294;2023-05-14T07:25:45;13.60;99.10
19232;DHT22;9750;48.730;10.294;2023-05-14T07:28:27;13.60;98.70
19232;DHT22;9750;48.730;10.294;2023-05-14T07:30:58;13.60;98.40
19232;DHT22;9750;48.730;10.294;2023-05-14T07:33:26;13.60;98.60
19232;DHT22;9750;48.730;10.294;2023-05-14T07:35:56;13.60;98.10
19232;DHT22;9750;48.730;10.294;2023-05-14T07:38:30;13.50;98.40
19232;DHT22;9750;48.730;10.294;2023-05-14T07:47:00;13.70;98.40
19232;DHT22;9750;48.730;10.294;2023-05-14T07:49:34;13.70;97.60
19232;DHT22;9750;48.730;10.294;2023-05-14T07:55:53;13.80;97.60
19232;DHT22;9750;48.730;10.294;2023-05-14T07:58:30;13.80;97.80
19232;DHT22;9750;48.730;10.294;2023-05-14T08:01:30;13.70;98.10
19232;DHT22;9750;48.730;10.294;2023-05-14T08:03:59;13.70;97.70
19232;DHT22;9750;48.730;10.294;2023-05-14T08:06:26;13.70;98.40
19232;DHT22;9750;48.730;10.294;2023-05-14T08:18:07;14.00;97.50
19232;DHT22;9750;48.730;10.294;2023-05-14T08:24:07;14.10;97.40
19232;DHT22;9750;48.730;10.294;2023-05-14T08:29:53;14.30;96.70
19232;DHT22;9750;48.730;10.294;2023-05-14T08:52:37;14.50;96.90
19232;DHT22;9750;48.730;10.294;2023-05-14T08:58:51;14.70;97.00
19232;DHT22;9750;48.730;10.294;2023-05-14T09:01:19;14.80;97.10
19232;DHT22;9750;48.730;10.294;2023-05-14T09:03:47;14.90;96.60
19232;DHT22;9750;48.730;10.294;2023-05-14T09:06:23;14.90;95.80
19232;DHT22;9750;48.730;10.294;2023-05-14T09:09:25;14.80;95.60
19232;DHT22;9750;48.730;10.294;2023-05-14T09:11:55;14.80;95.70
19232;DHT22;9750;48.730;10.294;2023-05-14T09:14:23;14.90;95.90
19232;DHT22;9750;48.730;10.294;2023-05-14T09:38:10;15.50;94.50
19232;DHT22;9750;48.730;10.294;2023-05-14T09:41:02;15.60;94.10
19232;DHT22;9750;48.730;10.294;2023-05-14T09:43:47;15.70;94.70
19232;DHT22;9750;48.730;10.294;2023-05-14T09:46:43;15.80;93.80
19232;DHT22;9750;48.730;10.294;2023-05-14T09:50:02;16.00;94.60
19232;DHT22;9750;48.730;10.294;2023-05-14T09:53:15;16.00;92.70
19232;DHT22;9750;48.730;10.294;2023-05-14T09:55:53;15.90;93.60
19232;DHT22;9750;48.730;10.294;2023-05-14T09:58:36;15.90;93.80
19232;DHT22;9750;48.730;10.294;2023-05-14T10:01:18;15.80;94.20
19232;DHT22;9750;48.730;10.294;2023-05-14T10:03:49;15.60;94.00
19232;DHT22;9750;48.730;10.294;2023-05-14T10:06:24;15.70;95.00
19232;DHT22;9750;48.730;10.294;2023-05-14T10:08:58;15.80;93.30
19232;DHT22;9750;48.730;10.294;2023-05-14T10:11:43;15.80;94.40
19232;DHT22;9750;48.730;10.294;2023-05-14T10:14:13;15.90;93.70
19232;DHT22;9750;48.730;10.294;2023-05-14T10:16:46;15.90;94.00
19232;DHT22;9750;48.730;10.294;2023-05-14T10:19:16;15.90;93.80
19232;DHT22;9750;48.730;10.294;2023-05-14T10:21:46;15.90;93.90
19232;DHT22;9750;48.730;10.294;2023-05-14T10:24:37;15.90;93.70
19232;DHT22;9750;48.730;10.294;2023-05-14T10:27:08;16.00;93.30
19232;DHT22;9750;48.730;10.294;2023-05-14T10:30:11;16.00;93.90
19232;DHT22;9750;48.730;10.294;2023-05-14T10:32:40;16.10;93.30
19232;DHT22;9750;48.730;10.294;2023-05-14T10:35:21;16.20;93.60
19232;DHT22;9750;48.730;10.294;2023-05-14T10:37:56;16.30;93.00
19232;DHT22;9750;48.730;10.294;2023-05-14T10:40:34;16.30;93.10
19232;DHT22;9750;48.730;10.294;2023-05-14T10:43:26;16.50;93.10
19232;DHT22;9750;48.730;10.294;2023-05-14T10:46:02;16.60;92.50
19232;DHT22;9750;48.730;10.294;2023-05-14T10:48:45;16.60;92.10
19232;DHT22;9750;48.730;10.294;2023-05-14T10:51:14;16.70;92.80
19232;DHT22;9750;48.730;10.294;2023-05-14T10:54:44;16.80;92.30
19232;DHT22;9750;48.730;10.294;2023-05-14T11:24:56;17.20;90.60
19232;DHT22;9750;48.730;10.294;2023-05-14T11:27:35;17.40;90.90
19232;DHT22;9750;48.730;10.294;2023-05-14T11:30:04;17.50;90.50
19232;DHT22;9750;48.730;10.294;2023-05-14T11:32:31;17.50;90.20
19232;DHT22;9750;48.730;10.294;2023-05-14T11:34:59;17.50;88.90
19232;DHT22;9750;48.730;10.294;2023-05-14T11:37:29;17.50;88.70
19232;DHT22;9750;48.730;10.294;2023-05-14T11:39:59;17.60;89.80
19232;DHT22;9750;48.730;10.294;2023-05-14T11:42:27;17.70;88.10
19232;DHT22;9750;48.730;10.294;2023-05-14T11:44:54;17.60;90.10
19232;DHT22;9750;48.730;10.294;2023-05-14T11:47:23;17.60;90.00
19232;DHT22;9750;48.730;10.294;2023-05-14T11:49:50;17.60;89.30
19232;DHT22;9750;48.730;10.294;2023-05-14T11:55:12;17.50;87.70
19232;DHT22;9750;48.730;10.294;2023-05-14T11:57:42;17.70;86.70
19232;DHT22;9750;48.730;10.294;2023-05-14T12:00:10;17.70;87.50
19232;DHT22;9750;48.730;10.294;2023-05-14T12:03:08;17.70;88.70
19232;DHT22;9750;48.730;10.294;2023-05-14T12:06:07;17.70;88.10
19232;DHT22;9750;48.730;10.294;2023-05-14T12:08:37;17.70;86.30
19232;DHT22;9750;48.730;10.294;2023-05-14T12:11:21;17.60;86.40
19232;DHT22;9750;48.730;10.294;2023-05-14T12:13:52;17.70;87.50
19232;DHT22;9750;48.730;10.294;2023-05-14T12:48:06;17.30;89.70
19232;DHT22;9750;48.730;10.294;2023-05-14T12:50:44;17.30;90.40
19232;DHT22;9750;48.730;10.294;2023-05-14T12:53:16;17.30;90.30
19232;DHT22;9750;48.730;10.294;2023-05-14T13:01:57;17.30;90.10
19232;DHT22;9750;48.730;10.294;2023-05-14T13:04:39;17.20;89.90
19232;DHT22;9750;48.730;10.294;2023-05-14T13:07:14;17.20;90.30
19232;DHT22;9750;48.730;10.294;2023-05-14T13:09:47;17.30;90.20
19232;DHT22;9750;48.730;10.294;2023-05-14T13:12:17;17.30;90.20
19232;DHT22;9750;48.730;10.294;2023-05-14T13:14:44;17.30;89.60
19232;DHT22;9750;48.730;10.294;2023-05-14T13:17:12;17.30;90.10
19232;DHT22;9750;48.730;10.294;2023-05-14T13:19:41;17.10;90.90
19232;DHT22;9750;48.730;10.294;2023-05-14T13:22:08;17.10;90.50
19232;DHT22;9750;48.730;10.294;2023-05-14T13:24:35;16.90;90.30
19232;DHT22;9750;48.730;10.294;2023-05-14T13:27:03;16.90;91.40
19232;DHT22;9750;48.730;10.294;2023-05-14T13:29:30;16.90;91.10
19232;DHT22;9750;48.730;10.294;2023-05-14T13:31:57;16.90;91.00
19232;DHT22;9750;48.730;10.294;2023-05-14T13:34:25;16.90;90.80
19232;DHT22;9750;48.730;10.294;2023-05-14T13:36:53;17.00;90.50
19232;DHT22;9750;48.730;10.294;2023-05-14T13:39:21;17.10;90.50
19232;DHT22;9750;48.730;10.294;2023-05-14T13:41:51;17.10;90.90
19232;DHT22;9750;48.730;10.294;2023-05-14T13:44:20;17.10;91.10
19232;DHT22;9750;48.730;10.294;2023-05-14T13:46:48;17.00;91.00
19232;DHT22;9750;48.730;10.294;2023-05-14T13:49:15;16.90;91.10
19232;DHT22;9750;48.730;10.294;2023-05-14T13:51:42;16.90;91.30
19232;DHT22;9750;48.730;10.294;2023-05-14T13:54:11;17.00;91.20
19232;DHT22;9750;48.730;10.294;2023-05-14T13:56:38;17.00;90.80
19232;DHT22;9750;48.730;10.294;2023-05-14T13:59:06;17.00;90.70
19232;DHT22;9750;48.730;10.294;2023-05-14T14:01:33;17.00;90.70
19232;DHT22;9750;48.730;10.294;2023-05-14T14:04:00;17.00;90.60
19232;DHT22;9750;48.730;10.294;2023-05-14T14:06:30;16.90;90.50
19232;DHT22;9750;48.730;10.294;2023-05-14T14:08:57;16.90;90.80
19232;DHT22;9750;48.730;10.294;2023-05-14T14:11:27;16.90;91.00
19232;DHT22;9750;48.730;10.294;2023-05-14T14:13:54;16.70;90.70
19232;DHT22;9750;48.730;10.294;2023-05-14T14:16:22;16.70;90.90
19232;DHT22;9750;48.730;10.294;2023-05-14T14:18:49;16.80;91.00
19232;DHT22;9750;48.730;10.294;2023-05-14T14:21:16;16.80;91.40
19232;DHT22;9750;48.730;10.294;2023-05-14T14:23:45;16.80;91.30
19232;DHT22;9750;48.730;10.294;2023-05-14T14:26:13;16.80;91.00
19232;DHT22;9750;48.730;10.294;2023-05-14T14:28:41;16.80;90.50
19232;DHT22;9750;48.730;10.294;2023-05-14T14:31:09;16.90;90.50
19232;DHT22;9750;48.730;10.294;2023-05-14T14:33:36;16.90;90.70
19232;DHT22;9750;48.730;10.294;2023-05-14T14:36:05;16.90;89.50
19232;DHT22;9750;48.730;10.294;2023-05-14T14:38:32;16.80;89.30
19232;DHT22;9750;48.730;10.294;2023-05-14T14:40:59;16.80;89.80
19232;DHT22;9750;48.730;10.294;2023-05-14T14:43:27;16.90;90.20
19232;DHT22;9750;48.730;10.294;2023-05-14T14:45:56;16.90;90.40
19232;DHT22;9750;48.730;10.294;2023-05-14T14:51:45;17.30;88.60
19232;DHT22;9750;48.730;10.294;2023-05-14T14:54:12;17.50;86.90
19232;DHT22;9750;48.730;10.294;2023-05-14T14:56:40;17.50;88.60
19232;DHT22;9750;48.730;10.294;2023-05-14T14:59:08;17.50;88.00
19232;DHT22;9750;48.730;10.294;2023-05-14T15:01:36;17.50;87.10
19232;DHT22;9750;48.730;10.294;2023-05-14T15:04:04;17.40;87.10
19232;DHT22;9750;48.730;10.294;2023-05-14T15:06:31;17.30;86.50
19232;DHT22;9750;48.730;10.294;2023-05-14T15:08:59;17.20;86.60
19232;DHT22;9750;48.730;10.294;2023-05-14T15:11:26;17.30;88.70
19232;DHT22;9750;48.730;10.294;2023-05-14T15:13:54;17.30;87.40
19232;DHT22;9750;48.730;10.294;2023-05-14T15:16:21;17.30;87.50
19232;DHT22;9750;48.730;10.294;2023-05-14T15:18:50;17.40;88.30
19232;DHT22;9750;48.730;10.294;2023-05-14T15:21:17;17.40;86.50
19232;DHT22;9750;48.730;10.294;2023-05-14T15:23:45;17.30;87.20
19232;DHT22;9750;48.730;10.294;2023-05-14T15:26:12;17.20;87.10
19232;DHT22;9750;48.730;10.294;2023-05-14T15:28:39;17.20;86.80
19232;DHT22;9750;48.730;10.294;2023-05-14T15:31:06;17.20;86.10
19232;DHT22;9750;48.730;10.294;2023-05-14T15:33:34;17.40;87.50
19232;DHT22;9750;48.730;10.294;2023-05-14T15:36:04;17.40;85.80
19232;DHT22;9750;48.730;10.294;2023-05-14T15:38:32;17.40;87.20
19232;DHT22;9750;48.730;10.294;2023-05-14T15:40:59;17.50;87.80
19232;DHT22;9750;48.730;10.294;2023-05-14T15:43:26;17.50;86.70
19232;DHT22;9750;48.730;10.294;2023-05-14T15:46:06;17.50;85.50
19232;DHT22;9750;48.730;10.294;2023-05-14T15:48:34;17.40;86.40
19232;DHT22;9750;48.730;10.294;2023-05-14T15:54:47;17.40;85.10
19232;DHT22;9750;48.730;10.294;2023-05-14T15:57:28;17.40;86.10
19232;DHT22;9750;48.730;10.294;2023-05-14T16:00:14;17.40;85.70
19232;DHT22;9750;48.730;10.294;2023-05-14T16:05:59;17.30;85.50
19232;DHT22;9750;48.730;10.294;2023-05-14T16:08:27;17.30;86.10
19232;DHT22;9750;48.730;10.294;2023-05-14T16:10:55;17.30;86.50
19232;DHT22;9750;48.730;10.294;2023-05-14T16:13:22;17.40;85.10
19232;DHT22;9750;48.730;10.294;2023-05-14T16:15:49;17.40;84.20
19232;DHT22;9750;48.730;10.294;2023-05-14T16:18:17;17.50;83.90
19232;DHT22;9750;48.730;10.294;2023-05-14T16:20:44;17.70;82.80
19232;DHT22;9750;48.730;10.294;2023-05-14T16:23:12;17.70;82.30
19232;DHT22;9750;48.730;10.294;2023-05-14T16:25:40;17.80;83.80
19232;DHT22;9750;48.730;10.294;2023-05-14T16:28:08;17.80;83.20
19232;DHT22;9750;48.730;10.294;2023-05-14T16:30:35;17.80;83.20
19232;DHT22;9750;48.730;10.294;2023-05-14T16:33:03;17.80;82.90
19232;DHT22;9750;48.730;10.294;2023-05-14T16:35:31;17.90;83.60
19232;DHT22;9750;48.730;10.294;2023-05-14T16:37:58;17.80;83.60
19232;DHT22;9750;48.730;10.294;2023-05-14T16:40:26;17.70;84.50
19232;DHT22;9750;48.730;10.294;2023-05-14T16:42:55;17.60;85.10
19232;DHT22;9750;48.730;10.294;2023-05-14T16:45:22;17.60;85.30
19232;DHT22;9750;48.730;10.294;2023-05-14T16:47:50;17.50;86.20
19232;DHT22;9750;48.730;10.294;2023-05-14T16:50:17;17.40;84.40
19232;DHT22;9750;48.730;10.294;2023-05-14T16:52:44;17.40;85.20
19232;DHT22;9750;48.730;10.294;2023-05-14T16:55:12;17.60;85.30
19232;DHT22;9750;48.730;10.294;2023-05-14T16:57:39;17.80;85.20
19232;DHT22;9750;48.730;10.294;2023-05-14T17:00:11;18.20;83.70
19232;DHT22;9750;48.730;10.294;2023-05-14T17:02:38;18.40;84.10
19232;DHT22;9750;48.730;10.294;2023-05-14T17:05:25;18.50;83.80
19232;DHT22;9750;48.730;10.294;2023-05-14T17:11:17;18.30;86.50
19232;DHT22;9750;48.730;10.294;2023-05-14T17:14:01;18.10;88.10
19232;DHT22;9750;48.730;10.294;2023-05-14T17:20:29;17.80;88.70
19232;DHT22;9750;48.730;10.294;2023-05-14T17:22:57;17.70;89.10
19232;DHT22;9750;48.730;10.294;2023-05-14T17:25:24;17.70;89.00
19232;DHT22;9750;48.730;10.294;2023-05-14T17:27:52;17.70;89.10
19232;DHT22;9750;48.730;10.294;2023-05-14T17:30:19;17.70;88.40
19232;DHT22;9750;48.730;10.294;2023-05-14T17:32:47;17.60;88.50
19232;DHT22;9750;48.730;10.294;2023-05-14T17:35:14;17.40;89.00
19232;DHT22;9750;48.730;10.294;2023-05-14T17:37:43;17.30;89.50
19232;DHT22;9750;48.730;10.294;2023-05-14T17:40:11;17.30;90.20
19232;DHT22;9750;48.730;10.294;2023-05-14T17:42:39;17.30;90.40
19232;DHT22;9750;48.730;10.294;2023-05-14T17:45:07;17.40;90.40
19232;DHT22;9750;48.730;10.294;2023-05-14T17:47:34;17.40;90.40
19232;DHT22;9750;48.730;10.294;2023-05-14T17:50:02;17.40;90.50
19232;DHT22;9750;48.730;10.294;2023-05-14T17:52:29;17.30;90.40
19232;DHT22;9750;48.730;10.294;2023-05-14T17:54:58;17.20;90.40
19232;DHT22;9750;48.730;10.294;2023-05-14T17:57:25;17.10;90.70
19232;DHT22;9750;48.730;10.294;2023-05-14T17:59:53;17.00;91.00
19232;DHT22;9750;48.730;10.294;2023-05-14T18:02:20;17.00;90.90
19232;DHT22;9750;48.730;10.294;2023-05-14T18:04:47;16.90;91.00
19232;DHT22;9750;48.730;10.294;2023-05-14T18:07:14;16.70;91.40
19232;DHT22;9750;48.730;10.294;2023-05-14T18:09:43;16.70;91.70
19232;DHT22;9750;48.730;10.294;2023-05-14T18:12:12;16.50;91.70
19232;DHT22;9750;48.730;10.294;2023-05-14T18:14:39;16.40;91.90
19232;DHT22;9750;48.730;10.294;2023-05-14T18:17:06;16.30;92.30
19232;DHT22;9750;48.730;10.294;2023-05-14T18:22:56;16.20;93.40
19232;DHT22;9750;48.730;10.294;2023-05-14T18:25:23;16.10;93.70
19232;DHT22;9750;48.730;10.294;2023-05-14T18:28:13;16.00;93.80
19232;DHT22;9750;48.730;10.294;2023-05-14T18:30:46;15.90;93.80
19232;DHT22;9750;48.730;10.294;2023-05-14T19:20:03;14.70;95.40
19232;DHT22;9750;48.730;10.294;2023-05-14T19:22:45;14.60;95.40
19232;DHT22;9750;48.730;10.294;2023-05-14T19:25:26;14.50;95.60
19232;DHT22;9750;48.730;10.294;2023-05-14T19:28:11;14.40;96.00
19232;DHT22;9750;48.730;10.294;2023-05-14T19:31:19;14.40;96.10
19232;DHT22;9750;48.730;10.294;2023-05-14T19:43:43;14.00;96.30
19232;DHT22;9750;48.730;10.294;2023-05-14T19:46:36;14.00;96.40
19232;DHT22;9750;48.730;10.294;2023-05-14T19:49:27;13.90;96.30
19232;DHT22;9750;48.730;10.294;2023-05-14T19:55:17;13.90;96.30
19232;DHT22;9750;48.730;10.294;2023-05-14T19:59:39;13.80;96.50
19232;DHT22;9750;48.730;10.294;2023-05-14T20:05:04;13.80;96.50
19232;DHT22;9750;48.730;10.294;2023-05-14T20:07:37;13.70;96.50
19232;DHT22;9750;48.730;10.294;2023-05-14T20:10:18;13.70;96.60
19232;DHT22;9750;48.730;10.294;2023-05-14T20:13:14;13.70;96.90
19232;DHT22;9750;48.730;10.294;2023-05-14T20:15:49;13.70;96.90
19232;DHT22;9750;48.730;10.294;2023-05-14T20:32:02;13.50;97.50
19232;DHT22;9750;48.730;10.294;2023-05-14T20:41:48;13.50;97.80
19232;DHT22;9750;48.730;10.294;2023-05-14T21:15:45;13.30;98.90
19232;DHT22;9750;48.730;10.294;2023-05-14T21:18:30;13.20;99.20
19232;DHT22;9750;48.730;10.294;2023-05-14T21:21:00;13.20;99.00
19232;DHT22;9750;48.730;10.294;2023-05-14T21:23:31;13.20;99.00
19232;DHT22;9750;48.730;10.294;2023-05-14T21:26:01;13.20;99.10
19232;DHT22;9750;48.730;10.294;2023-05-14T21:28:39;13.20;99.40
19232;DHT22;9750;48.730;10.294;2023-05-14T21:31:09;13.10;99.20